SBI5014 USSS-UNNT
Flight info
| Callsign | SBI5014 |
|---|---|
| Flight time | N/A |
| Altitude | 35000 |
| Route | N0460F350 ANATU P135 GIBUL P983 TINRI T448 RUBOR A300 ML R814 SZ W1 GOLIM |
| Aircraft | B738/M-VGDW/C |
Departure
| Time | 2026-05-01 13:17 |
|---|---|
| Airport | Koltsovo Airport (USSS) |
Arrival
| Time | N/A |
|---|---|
| Airport | Novosibirsk Tolmachevo Airport (UNNT) |
| Time | Latitude | Longitude | Altitude | Speed | Heading |
|---|---|---|---|---|---|
| 2026-05-01 12:37 | 56.74788 | 60.80772 | 781 ft | 0 kts | 181° |
| 2026-05-01 13:10 | 56.74773 | 60.80771 | 774 ft | 7 kts | 181° |
| 2026-05-01 13:10 | 56.74749 | 60.80695 | 774 ft | 11 kts | 292° |
| 2026-05-01 13:10 | 56.74835 | 60.80621 | 774 ft | 15 kts | 318° |
| 2026-05-01 13:11 | 56.74850 | 60.80442 | 774 ft | 14 kts | 270° |
| 2026-05-01 13:11 | 56.74851 | 60.80263 | 774 ft | 14 kts | 270° |
| 2026-05-01 13:11 | 56.74852 | 60.80093 | 773 ft | 13 kts | 271° |
| 2026-05-01 13:11 | 56.74855 | 60.79929 | 773 ft | 13 kts | 271° |
| 2026-05-01 13:12 | 56.74857 | 60.79770 | 773 ft | 12 kts | 271° |
| 2026-05-01 13:12 | 56.74857 | 60.79616 | 773 ft | 12 kts | 274° |
| 2026-05-01 13:12 | 56.74857 | 60.79464 | 772 ft | 12 kts | 269° |
| 2026-05-01 13:12 | 56.74858 | 60.79316 | 772 ft | 12 kts | 270° |
| 2026-05-01 13:13 | 56.74858 | 60.79164 | 772 ft | 14 kts | 268° |
| 2026-05-01 13:13 | 56.74855 | 60.78980 | 772 ft | 15 kts | 268° |
| 2026-05-01 13:13 | 56.74856 | 60.78799 | 771 ft | 14 kts | 272° |
| 2026-05-01 13:13 | 56.74859 | 60.78625 | 771 ft | 13 kts | 272° |
| 2026-05-01 13:14 | 56.74861 | 60.78460 | 771 ft | 13 kts | 266° |
| 2026-05-01 13:14 | 56.74858 | 60.78298 | 770 ft | 13 kts | 268° |
| 2026-05-01 13:14 | 56.74825 | 60.78164 | 770 ft | 13 kts | 197° |
| 2026-05-01 13:14 | 56.74737 | 60.78153 | 770 ft | 13 kts | 182° |
| 2026-05-01 13:15 | 56.74650 | 60.78145 | 769 ft | 12 kts | 182° |
| 2026-05-01 13:15 | 56.74566 | 60.78149 | 769 ft | 13 kts | 179° |
| 2026-05-01 13:15 | 56.74469 | 60.78149 | 769 ft | 14 kts | 180° |
| 2026-05-01 13:15 | 56.74378 | 60.78097 | 770 ft | 14 kts | 202° |
| 2026-05-01 13:16 | 56.74295 | 60.78024 | 775 ft | 13 kts | 206° |
| 2026-05-01 13:16 | 56.74230 | 60.78069 | 775 ft | 13 kts | 103° |
| 2026-05-01 13:16 | 56.74222 | 60.78228 | 775 ft | 13 kts | 92° |
| 2026-05-01 13:17 | 56.74087 | 60.81993 | 847 ft | 184 kts | 92° |
| 2026-05-01 13:17 | 56.73996 | 60.84423 | 1370 ft | 206 kts | 92° |
| 2026-05-01 13:18 | 56.73789 | 60.89982 | 2514 ft | 224 kts | 90° |
| 2026-05-01 13:18 | 56.73779 | 60.92681 | 3642 ft | 198 kts | 78° |
| 2026-05-01 13:18 | 56.74229 | 60.95200 | 3960 ft | 216 kts | 52° |
| 2026-05-01 13:18 | 56.75198 | 60.96973 | 5205 ft | 176 kts | 28° |
| 2026-05-01 13:19 | 56.76237 | 60.97650 | 6381 ft | 152 kts | 7° |
| 2026-05-01 13:19 | 56.77355 | 60.97602 | 6743 ft | 174 kts | 353° |
| 2026-05-01 13:19 | 56.79837 | 60.96146 | 7559 ft | 184 kts | 338° |
| 2026-05-01 13:20 | 56.80892 | 60.95105 | 8539 ft | 166 kts | 333° |
| 2026-05-01 13:20 | 56.81895 | 60.93953 | 9022 ft | 179 kts | 331° |
| 2026-05-01 13:20 | 56.83120 | 60.93412 | 9182 ft | 191 kts | 12° |
| 2026-05-01 13:21 | 56.85337 | 60.96686 | 9533 ft | 226 kts | 48° |
| 2026-05-01 13:21 | 56.86353 | 60.99027 | 9644 ft | 244 kts | 50° |
| 2026-05-01 13:21 | 56.87416 | 61.01514 | 9891 ft | 252 kts | 50° |
| 2026-05-01 13:21 | 56.88502 | 61.04063 | 10256 ft | 257 kts | 50° |
| 2026-05-01 13:22 | 56.89653 | 61.06725 | 10376 ft | 276 kts | 50° |
| 2026-05-01 13:22 | 56.90882 | 61.09562 | 10503 ft | 298 kts | 50° |
| 2026-05-01 13:22 | 56.92218 | 61.12623 | 10669 ft | 318 kts | 50° |
| 2026-05-01 13:22 | 56.93627 | 61.15912 | 10802 ft | 339 kts | 53° |
| 2026-05-01 13:23 | 56.94807 | 61.19745 | 11147 ft | 352 kts | 64° |
| 2026-05-01 13:23 | 56.95789 | 61.23882 | 11752 ft | 355 kts | 65° |
| 2026-05-01 13:23 | 56.96763 | 61.28080 | 12351 ft | 360 kts | 66° |
| 2026-05-01 13:23 | 56.97747 | 61.32331 | 13047 ft | 363 kts | 65° |
| 2026-05-01 13:24 | 56.98740 | 61.36605 | 13690 ft | 366 kts | 65° |
| 2026-05-01 13:24 | 56.99754 | 61.40947 | 14216 ft | 371 kts | 66° |
| 2026-05-01 13:24 | 57.00778 | 61.45309 | 14845 ft | 374 kts | 66° |
| 2026-05-01 13:25 | 57.02861 | 61.54196 | 16037 ft | 383 kts | 67° |
| 2026-05-01 13:25 | 57.03917 | 61.58704 | 16600 ft | 387 kts | 68° |
| 2026-05-01 13:25 | 57.04987 | 61.63288 | 17112 ft | 393 kts | 68° |
| 2026-05-01 13:25 | 57.06069 | 61.67930 | 17685 ft | 397 kts | 68° |
| 2026-05-01 13:26 | 57.07148 | 61.72562 | 18218 ft | 401 kts | 69° |
| 2026-05-01 13:26 | 57.08249 | 61.77301 | 18698 ft | 405 kts | 69° |
| 2026-05-01 13:26 | 57.09359 | 61.82092 | 19180 ft | 409 kts | 69° |
| 2026-05-01 13:26 | 57.10475 | 61.86928 | 19666 ft | 413 kts | 69° |
| 2026-05-01 13:27 | 57.11600 | 61.91807 | 20159 ft | 416 kts | 69° |
| 2026-05-01 13:27 | 57.12736 | 61.96741 | 20628 ft | 420 kts | 69° |
| 2026-05-01 13:27 | 57.14723 | 62.06923 | 21526 ft | 425 kts | 76° |
| 2026-05-01 13:28 | 57.16320 | 62.17511 | 22426 ft | 432 kts | 78° |
| 2026-05-01 13:28 | 57.17113 | 62.22882 | 22874 ft | 436 kts | 78° |
| 2026-05-01 13:29 | 57.18741 | 62.33736 | 23662 ft | 442 kts | 78° |
| 2026-05-01 13:29 | 57.20418 | 62.44742 | 24422 ft | 446 kts | 79° |
| 2026-05-01 13:30 | 57.23796 | 62.66985 | 25794 ft | 455 kts | 80° |
| 2026-05-01 13:31 | 57.25498 | 62.78309 | 26456 ft | 459 kts | 80° |
| 2026-05-01 13:31 | 57.28047 | 62.95426 | 27359 ft | 465 kts | 81° |
| 2026-05-01 13:32 | 57.29760 | 63.07030 | 27948 ft | 469 kts | 81° |
| 2026-05-01 13:33 | 57.32335 | 63.24632 | 28894 ft | 474 kts | 82° |
| 2026-05-01 13:33 | 57.34028 | 63.36291 | 29769 ft | 470 kts | 82° |
| 2026-05-01 13:34 | 57.35714 | 63.48009 | 30342 ft | 471 kts | 82° |
| 2026-05-01 13:34 | 57.37393 | 63.59763 | 30885 ft | 472 kts | 82° |
| 2026-05-01 13:35 | 57.38885 | 63.71571 | 31431 ft | 464 kts | 91° |
| 2026-05-01 13:35 | 57.39019 | 63.77491 | 31706 ft | 456 kts | 99° |
| 2026-05-01 13:35 | 57.37992 | 63.88847 | 32290 ft | 443 kts | 112° |
| 2026-05-01 13:36 | 57.37182 | 63.94345 | 32519 ft | 443 kts | 112° |
| 2026-05-01 13:36 | 57.36365 | 63.99848 | 32793 ft | 443 kts | 112° |
| 2026-05-01 13:36 | 57.34764 | 64.10816 | 33348 ft | 444 kts | 112° |
| 2026-05-01 13:37 | 57.33967 | 64.16350 | 33591 ft | 445 kts | 112° |
| 2026-05-01 13:37 | 57.33172 | 64.21883 | 33837 ft | 445 kts | 112° |
| 2026-05-01 13:37 | 57.32374 | 64.27440 | 34036 ft | 446 kts | 112° |
| 2026-05-01 13:37 | 57.31569 | 64.33014 | 34186 ft | 447 kts | 112° |
| 2026-05-01 13:38 | 57.29963 | 64.44099 | 34570 ft | 449 kts | 112° |
| 2026-05-01 13:38 | 57.29147 | 64.49687 | 34736 ft | 450 kts | 112° |
| 2026-05-01 13:39 | 57.27494 | 64.60924 | 34751 ft | 454 kts | 112° |
| 2026-05-01 13:39 | 57.25845 | 64.72072 | 34732 ft | 449 kts | 112° |
| 2026-05-01 13:40 | 57.24191 | 64.83187 | 34720 ft | 447 kts | 112° |
| 2026-05-01 13:40 | 57.22540 | 64.94190 | 34707 ft | 446 kts | 112° |
| 2026-05-01 13:41 | 57.20872 | 65.05234 | 34699 ft | 446 kts | 112° |
| 2026-05-01 13:41 | 57.19194 | 65.16282 | 34691 ft | 446 kts | 112° |
| 2026-05-01 13:42 | 57.17509 | 65.27310 | 34691 ft | 447 kts | 112° |
| 2026-05-01 13:42 | 57.16300 | 65.38669 | 34700 ft | 457 kts | 103° |
| 2026-05-01 13:43 | 57.15615 | 65.50283 | 34685 ft | 459 kts | 103° |
| 2026-05-01 13:43 | 57.14913 | 65.61995 | 34683 ft | 460 kts | 103° |
| 2026-05-01 13:44 | 57.14161 | 65.73709 | 34693 ft | 460 kts | 104° |
| 2026-05-01 13:44 | 57.13383 | 65.85425 | 34693 ft | 461 kts | 104° |
| 2026-05-01 13:45 | 57.12595 | 65.97151 | 34697 ft | 462 kts | 104° |
| 2026-05-01 13:45 | 57.11802 | 66.08819 | 34683 ft | 462 kts | 104° |
| 2026-05-01 13:46 | 57.10993 | 66.20538 | 34683 ft | 462 kts | 104° |
| 2026-05-01 13:46 | 57.10171 | 66.32275 | 34683 ft | 462 kts | 104° |
| 2026-05-01 13:47 | 57.09346 | 66.43914 | 34681 ft | 461 kts | 104° |
| 2026-05-01 13:47 | 57.08507 | 66.55613 | 34674 ft | 461 kts | 104° |
| 2026-05-01 13:48 | 57.07657 | 66.67304 | 34670 ft | 460 kts | 104° |
| 2026-05-01 13:48 | 57.06797 | 66.78985 | 34680 ft | 460 kts | 105° |
| 2026-05-01 13:49 | 57.05928 | 66.90643 | 34672 ft | 460 kts | 105° |
| 2026-05-01 13:49 | 57.04992 | 67.02188 | 34669 ft | 459 kts | 106° |
| 2026-05-01 13:50 | 57.03982 | 67.13753 | 34671 ft | 459 kts | 106° |
| 2026-05-01 13:50 | 57.02964 | 67.25328 | 34672 ft | 459 kts | 106° |
| 2026-05-01 13:51 | 57.01944 | 67.36903 | 34666 ft | 459 kts | 106° |
| 2026-05-01 13:51 | 57.00926 | 67.48393 | 34669 ft | 459 kts | 106° |
| 2026-05-01 13:52 | 56.99888 | 67.59995 | 34668 ft | 459 kts | 107° |
| 2026-05-01 13:52 | 56.98848 | 67.71485 | 34664 ft | 459 kts | 107° |
| 2026-05-01 13:53 | 56.97792 | 67.83027 | 34661 ft | 459 kts | 107° |
| 2026-05-01 13:53 | 56.96368 | 67.98402 | 34662 ft | 459 kts | 107° |
| 2026-05-01 13:54 | 56.95110 | 68.11802 | 34661 ft | 458 kts | 107° |